Time;durP1;ratioP1;P1;durP2;ratioP2;P2;SDS_P1;SDS_P2;PMS_P1;PMS_P2;Temp;Humidity;BMP_temperature;BMP_pressure;BME280_temperature;BME280_humidity;BME280_pressure;Samples;Min_cycle;Max_cycle;Signal;HPM_P1;HPM_P2
2023/08/20 00:01:23;;;;;;;13.55;7.80;;;;;;;;;;5093238;28;20028;-73
2023/08/20 00:03:50;;;;;;;12.10;7.70;;;;;;;;;;5075279;28;20024;-73
2023/08/20 00:06:16;;;;;;;8.60;7.53;;;;;;;;;;5093218;28;20024;-74
2023/08/20 00:08:41;;;;;;;14.05;8.13;;;;;;;;;;5093731;28;20024;-73
2023/08/20 00:11:06;;;;;;;11.77;7.73;;;;;;;;;;5075119;28;20074;-73
2023/08/20 00:13:31;;;;;;;9.48;7.40;;;;;;;;;;5093467;28;20252;-74
2023/08/20 00:15:57;;;;;;;9.02;7.07;;;;;;;;;;5092885;28;20538;-73
2023/08/20 00:18:22;;;;;;;12.50;8.10;;;;;;;;;;5093139;28;20020;-73
2023/08/20 00:20:48;;;;;;;8.55;6.82;;;;;;;;;;5074886;28;20441;-74
2023/08/20 00:23:14;;;;;;;12.57;7.13;;;;;;;;;;5093007;28;20059;-74
2023/08/20 00:25:40;;;;;;;10.27;7.03;;;;;;;;;;5093196;28;20034;-73
2023/08/20 00:28:05;;;;;;;12.65;7.60;;;;;;;;;;5075124;28;20020;-74
2023/08/20 00:30:31;;;;;;;16.25;8.05;;;;;;;;;;5093004;28;20052;-71
2023/08/20 00:32:56;;;;;;;9.10;7.20;;;;;;;;;;5092906;28;20019;-73
2023/08/20 00:35:21;;;;;;;12.00;7.10;;;;;;;;;;5092818;28;20028;-74
2023/08/20 00:37:47;;;;;;;10.35;7.10;;;;;;;;;;5093159;28;20257;-74
2023/08/20 00:40:12;;;;;;;10.02;6.75;;;;;;;;;;5092776;28;20032;-72
2023/08/20 00:42:38;;;;;;;10.43;6.68;;;;;;;;;;5093021;28;20397;-73
2023/08/20 00:45:04;;;;;;;13.00;7.25;;;;;;;;;;5092849;28;20089;-74
2023/08/20 00:47:29;;;;;;;10.02;7.32;;;;;;;;;;5092729;28;20031;-73
2023/08/20 00:49:54;;;;;;;11.02;7.30;;;;;;;;;;5093022;28;20020;-72
2023/08/20 00:52:20;;;;;;;14.50;7.25;;;;;;;;;;5074672;28;20052;-72
2023/08/20 00:54:47;;;;;;;11.27;7.32;;;;;;;;;;5074609;28;20024;-72
2023/08/20 00:57:18;;;;;;;7.53;6.70;;;;;;;;;;5078547;28;20026;-74
2023/08/20 00:59:47;;;;;;;10.13;7.07;;;;;;;;;;5096899;28;20107;-73
2023/08/20 01:02:12;;;;;;;9.88;6.68;;;;;;;;;;5078549;28;20445;-73
2023/08/20 01:04:38;;;;;;;10.45;7.18;;;;;;;;;;5096731;28;20028;-72
2023/08/20 01:07:40;;;;;;;11.95;7.10;;;;;;;;;;5078936;28;20023;-73
2023/08/20 01:10:21;;;;;;;9.80;7.50;;;;;;;;;;5096849;28;20031;-73
2023/08/20 01:12:48;;;;;;;11.23;6.93;;;;;;;;;;5096733;28;20016;-73
2023/08/20 01:15:16;;;;;;;10.30;7.05;;;;;;;;;;5096723;28;20039;-73
2023/08/20 01:17:41;;;;;;;9.70;6.85;;;;;;;;;;5096583;28;20016;-73
2023/08/20 01:20:08;;;;;;;13.10;7.70;;;;;;;;;;5096782;28;20099;-73
2023/08/20 01:22:55;;;;;;;9.48;7.35;;;;;;;;;;5096330;28;20024;-73
2023/08/20 01:25:41;;;;;;;10.32;7.13;;;;;;;;;;5096384;28;20024;-74
2023/08/20 01:28:27;;;;;;;16.58;7.15;;;;;;;;;;5096638;28;20024;-74
2023/08/20 01:30:55;;;;;;;9.27;7.35;;;;;;;;;;5096525;28;20107;-74
2023/08/20 01:33:20;;;;;;;7.68;6.78;;;;;;;;;;5096159;28;20099;-74
2023/08/20 01:35:46;;;;;;;9.57;7.75;;;;;;;;;;5096112;28;20060;-75
2023/08/20 01:38:11;;;;;;;8.13;6.82;;;;;;;;;;5096094;28;20391;-73
2023/08/20 01:40:36;;;;;;;10.47;7.37;;;;;;;;;;5096098;28;20052;-72
2023/08/20 01:43:02;;;;;;;9.05;6.93;;;;;;;;;;5096050;28;20272;-73
2023/08/20 01:45:27;;;;;;;11.23;7.20;;;;;;;;;;5096156;28;20073;-72
2023/08/20 01:47:52;;;;;;;9.60;6.70;;;;;;;;;;5096044;28;20574;-74
2023/08/20 01:50:18;;;;;;;10.70;7.25;;;;;;;;;;5096201;28;20253;-74
2023/08/20 01:52:43;;;;;;;8.63;7.03;;;;;;;;;;5095933;28;20068;-74
2023/08/20 01:55:08;;;;;;;12.52;7.18;;;;;;;;;;5095932;28;20020;-73
2023/08/20 01:57:34;;;;;;;7.35;6.55;;;;;;;;;;5077705;28;20016;-73
2023/08/20 01:59:59;;;;;;;13.02;7.57;;;;;;;;;;5095904;28;20024;-73
2023/08/20 02:02:24;;;;;;;11.45;7.22;;;;;;;;;;5077401;28;20162;-74
2023/08/20 02:04:50;;;;;;;8.57;7.18;;;;;;;;;;5095545;28;20031;-72
2023/08/20 02:07:15;;;;;;;9.70;6.88;;;;;;;;;;5094485;28;20024;-72
2023/08/20 02:09:41;;;;;;;8.40;6.90;;;;;;;;;;5095509;28;20538;-74
2023/08/20 02:12:06;;;;;;;12.98;6.90;;;;;;;;;;5095458;28;20360;-71
2023/08/20 02:14:34;;;;;;;9.25;6.97;;;;;;;;;;5077062;28;20566;-72
2023/08/20 02:17:01;;;;;;;11.82;7.25;;;;;;;;;;5095504;28;20559;-75
2023/08/20 02:19:26;;;;;;;12.80;7.32;;;;;;;;;;5095300;28;20027;-73
2023/08/20 02:21:53;;;;;;;13.73;7.30;;;;;;;;;;5095250;28;20471;-73
2023/08/20 02:24:18;;;;;;;11.88;7.55;;;;;;;;;;5095238;28;20280;-73
2023/08/20 02:26:43;;;;;;;10.10;7.20;;;;;;;;;;5095142;28;20501;-73
2023/08/20 02:29:09;;;;;;;12.82;7.22;;;;;;;;;;5095513;28;20028;-74
2023/08/20 02:31:35;;;;;;;7.40;6.60;;;;;;;;;;5095304;28;20393;-73
2023/08/20 02:34:00;;;;;;;10.15;7.18;;;;;;;;;;5094996;28;20020;-73
2023/08/20 02:36:25;;;;;;;8.48;6.90;;;;;;;;;;5095000;28;20027;-71
2023/08/20 02:38:50;;;;;;;9.55;7.32;;;;;;;;;;5076792;28;20035;-74
2023/08/20 02:41:16;;;;;;;9.33;7.23;;;;;;;;;;5093993;28;20202;-76
2023/08/20 02:43:41;;;;;;;12.50;7.05;;;;;;;;;;5093531;28;20291;-74
2023/08/20 02:46:06;;;;;;;8.33;7.17;;;;;;;;;;5093743;28;20024;-73
2023/08/20 02:48:32;;;;;;;10.85;7.40;;;;;;;;;;5094770;28;20259;-71
2023/08/20 02:50:57;;;;;;;9.90;7.78;;;;;;;;;;5093323;28;20024;-73
2023/08/20 02:53:22;;;;;;;11.03;7.50;;;;;;;;;;5094652;28;20151;-73
2023/08/20 02:55:48;;;;;;;9.48;7.07;;;;;;;;;;5093722;28;20260;-73
2023/08/20 02:58:13;;;;;;;8.98;6.72;;;;;;;;;;5094596;28;20402;-73
2023/08/20 03:00:39;;;;;;;10.82;7.25;;;;;;;;;;5094496;28;20046;-72
2023/08/20 03:03:07;;;;;;;9.85;7.68;;;;;;;;;;5094463;28;20581;-73
2023/08/20 03:05:32;;;;;;;9.45;7.38;;;;;;;;;;5094382;28;20115;-72
2023/08/20 03:07:57;;;;;;;14.00;7.15;;;;;;;;;;5076164;28;20105;-72
2023/08/20 03:10:23;;;;;;;11.13;7.25;;;;;;;;;;5094374;28;20057;-72
2023/08/20 03:12:48;;;;;;;12.05;7.05;;;;;;;;;;5094414;28;20055;-73
2023/08/20 03:15:14;;;;;;;8.55;7.60;;;;;;;;;;5094029;28;20470;-73
2023/08/20 03:17:39;;;;;;;13.13;7.68;;;;;;;;;;5094547;28;20035;-73
2023/08/20 03:20:06;;;;;;;10.77;7.03;;;;;;;;;;5094227;28;20378;-74
2023/08/20 03:22:31;;;;;;;11.20;7.25;;;;;;;;;;5094570;28;20273;-73
2023/08/20 03:24:57;;;;;;;10.85;7.25;;;;;;;;;;5094297;28;20020;-72
2023/08/20 03:27:22;;;;;;;11.43;7.30;;;;;;;;;;5094064;28;20031;-73
2023/08/20 03:29:47;;;;;;;8.82;6.88;;;;;;;;;;5075850;28;20437;-73
2023/08/20 03:32:12;;;;;;;8.38;7.22;;;;;;;;;;5093937;28;20471;-74
2023/08/20 03:34:38;;;;;;;11.50;8.48;;;;;;;;;;5093849;28;20368;-73
2023/08/20 03:37:04;;;;;;;8.55;7.32;;;;;;;;;;5075688;28;20150;-74
2023/08/20 03:39:30;;;;;;;10.55;7.57;;;;;;;;;;5076000;28;20482;-72
2023/08/20 03:41:56;;;;;;;9.95;6.97;;;;;;;;;;5075446;28;20020;-73
2023/08/20 03:44:21;;;;;;;11.07;7.38;;;;;;;;;;5075494;28;20399;-71
2023/08/20 03:46:47;;;;;;;9.07;7.72;;;;;;;;;;5093658;28;20028;-72
2023/08/20 03:49:12;;;;;;;13.27;7.73;;;;;;;;;;5093603;28;20497;-73
2023/08/20 03:51:37;;;;;;;9.77;6.97;;;;;;;;;;5075625;28;20253;-73
2023/08/20 03:54:03;;;;;;;8.40;7.45;;;;;;;;;;5093477;28;20024;-73
2023/08/20 03:56:28;;;;;;;9.75;7.82;;;;;;;;;;5075279;28;20024;-72
2023/08/20 03:58:54;;;;;;;11.07;7.85;;;;;;;;;;5075276;28;20020;-74
2023/08/20 04:01:19;;;;;;;8.90;7.32;;;;;;;;;;5093344;28;20399;-72
2023/08/20 04:03:48;;;;;;;13.10;7.57;;;;;;;;;;5093796;28;20027;-73
2023/08/20 04:06:14;;;;;;;9.32;7.07;;;;;;;;;;5075090;28;20077;-74
2023/08/20 04:08:39;;;;;;;9.63;7.55;;;;;;;;;;5093229;28;20024;-73
2023/08/20 04:11:05;;;;;;;11.63;7.28;;;;;;;;;;5075108;28;20036;-73
2023/08/20 04:13:30;;;;;;;9.10;7.47;;;;;;;;;;5093785;28;20415;-74
2023/08/20 04:15:56;;;;;;;11.13;7.50;;;;;;;;;;5093075;28;20028;-73
2023/08/20 04:18:21;;;;;;;8.60;7.15;;;;;;;;;;5093119;28;20056;-74
2023/08/20 04:20:47;;;;;;;11.25;7.07;;;;;;;;;;5093150;28;20035;-73
2023/08/20 04:23:12;;;;;;;9.07;7.30;;;;;;;;;;5093244;28;20028;-73
2023/08/20 04:25:38;;;;;;;9.65;7.65;;;;;;;;;;5093007;28;20031;-73
2023/08/20 04:28:03;;;;;;;14.32;7.57;;;;;;;;;;5093067;28;20016;-73
2023/08/20 04:30:28;;;;;;;11.02;7.72;;;;;;;;;;5092334;28;20032;-73
2023/08/20 04:32:54;;;;;;;9.73;7.70;;;;;;;;;;5092945;28;20020;-74
2023/08/20 04:35:19;;;;;;;12.50;8.05;;;;;;;;;;5093012;28;20024;-73
2023/08/20 04:37:44;;;;;;;14.37;7.43;;;;;;;;;;5093208;28;20035;-74
2023/08/20 04:40:10;;;;;;;9.73;7.32;;;;;;;;;;5092917;28;20615;-72
2023/08/20 04:42:35;;;;;;;9.30;7.82;;;;;;;;;;5092815;28;20028;-71
2023/08/20 04:45:00;;;;;;;8.13;6.93;;;;;;;;;;5092965;28;20428;-74
2023/08/20 04:47:26;;;;;;;8.95;7.30;;;;;;;;;;5092887;28;20256;-74
2023/08/20 04:49:52;;;;;;;10.23;7.28;;;;;;;;;;5092652;28;20032;-73
2023/08/20 04:52:17;;;;;;;8.60;7.30;;;;;;;;;;5093035;28;20019;-73
2023/08/20 04:54:42;;;;;;;10.23;7.50;;;;;;;;;;5092625;28;20390;-73
2023/08/20 04:57:07;;;;;;;8.30;7.13;;;;;;;;;;5092779;28;20502;-74
2023/08/20 04:59:33;;;;;;;10.60;7.07;;;;;;;;;;5092671;28;20028;-74
2023/08/20 05:01:58;;;;;;;15.50;7.32;;;;;;;;;;5074506;28;20024;-74
2023/08/20 05:04:23;;;;;;;11.95;7.28;;;;;;;;;;5092666;28;20024;-74
2023/08/20 05:06:49;;;;;;;10.93;7.53;;;;;;;;;;5092723;28;20107;-74
2023/08/20 05:09:15;;;;;;;7.50;6.70;;;;;;;;;;5074603;28;20024;-73
2023/08/20 05:11:41;;;;;;;11.18;7.70;;;;;;;;;;5092704;28;20588;-74
2023/08/20 05:14:06;;;;;;;10.75;8.13;;;;;;;;;;5074363;28;20073;-73
2023/08/20 05:16:31;;;;;;;10.05;8.02;;;;;;;;;;5092413;28;20028;-73
2023/08/20 05:18:57;;;;;;;12.20;8.27;;;;;;;;;;5092513;28;20032;-74
2023/08/20 05:21:22;;;;;;;10.80;8.07;;;;;;;;;;5092817;28;20028;-73
2023/08/20 05:23:47;;;;;;;11.57;8.40;;;;;;;;;;5092407;28;20387;-73
2023/08/20 05:26:12;;;;;;;16.80;7.67;;;;;;;;;;5093172;28;20256;-73
2023/08/20 05:28:37;;;;;;;9.73;7.33;;;;;;;;;;5093052;28;20339;-72
2023/08/20 05:31:03;;;;;;;13.00;8.90;;;;;;;;;;5092510;28;20374;-73
2023/08/20 05:33:28;;;;;;;12.07;7.93;;;;;;;;;;5092442;28;20260;-72
2023/08/20 05:35:53;;;;;;;10.20;7.37;;;;;;;;;;5092297;28;20355;-72
2023/08/20 05:38:18;;;;;;;9.48;7.30;;;;;;;;;;5092374;28;20256;-72
2023/08/20 05:40:44;;;;;;;9.07;7.13;;;;;;;;;;5092300;28;20510;-73
2023/08/20 05:43:09;;;;;;;12.43;7.57;;;;;;;;;;5095956;28;20277;-72
2023/08/20 05:45:35;;;;;;;11.43;7.10;;;;;;;;;;5096152;28;20035;-75
2023/08/20 05:48:00;;;;;;;9.38;6.70;;;;;;;;;;5096023;28;20107;-73
2023/08/20 05:50:25;;;;;;;9.00;5.90;;;;;;;;;;5095948;28;20028;-73
2023/08/20 05:52:52;;;;;;;9.07;5.30;;;;;;;;;;5095796;28;20313;-73
2023/08/20 05:55:18;;;;;;;13.65;5.90;;;;;;;;;;5077506;28;20035;-73
2023/08/20 05:57:43;;;;;;;10.95;5.72;;;;;;;;;;5095734;28;20399;-73
2023/08/20 06:00:10;;;;;;;8.20;5.80;;;;;;;;;;5096320;28;20068;-72
2023/08/20 06:02:35;;;;;;;10.73;5.65;;;;;;;;;;5095661;28;20502;-72
2023/08/20 06:05:01;;;;;;;7.10;5.43;;;;;;;;;;5095537;28;20024;-72
2023/08/20 06:07:26;;;;;;;10.45;5.60;;;;;;;;;;5095601;28;20503;-72
2023/08/20 06:09:51;;;;;;;9.48;5.32;;;;;;;;;;5095578;28;20023;-72
2023/08/20 06:12:17;;;;;;;10.20;5.30;;;;;;;;;;5095493;28;20027;-74
2023/08/20 06:14:42;;;;;;;9.52;5.85;;;;;;;;;;5095591;28;20145;-73
2023/08/20 06:17:07;;;;;;;11.38;5.15;;;;;;;;;;5095535;28;20100;-73
2023/08/20 06:19:33;;;;;;;9.90;5.38;;;;;;;;;;5095510;28;20024;-73
2023/08/20 06:21:59;;;;;;;9.35;5.30;;;;;;;;;;5095423;28;20594;-73
2023/08/20 06:24:24;;;;;;;11.70;5.68;;;;;;;;;;5095181;28;20032;-73
2023/08/20 06:26:49;;;;;;;10.57;5.90;;;;;;;;;;5077481;28;20020;-73
2023/08/20 06:29:15;;;;;;;7.00;5.55;;;;;;;;;;5076996;28;20256;-73
2023/08/20 06:31:40;;;;;;;6.03;5.43;;;;;;;;;;5077059;28;20050;-73
2023/08/20 06:34:05;;;;;;;8.90;5.70;;;;;;;;;;5095069;28;20249;-73
2023/08/20 06:36:31;;;;;;;10.82;5.68;;;;;;;;;;5094938;28;20020;-73
2023/08/20 06:38:56;;;;;;;8.27;5.50;;;;;;;;;;5095291;28;20036;-73
2023/08/20 06:41:22;;;;;;;7.60;5.43;;;;;;;;;;5095093;28;20040;-73
2023/08/20 06:43:48;;;;;;;7.30;5.70;;;;;;;;;;5074719;28;20273;-74
2023/08/20 06:46:13;;;;;;;11.17;5.33;;;;;;;;;;5092598;28;20031;-74
2023/08/20 06:48:38;;;;;;;9.33;5.37;;;;;;;;;;5092640;28;20336;-74
2023/08/20 06:51:17;;;;;;;8.13;5.70;;;;;;;;;;5092612;28;20369;-72
2023/08/20 06:53:43;;;;;;;9.85;5.55;;;;;;;;;;5073706;28;20020;-74
2023/08/20 06:56:08;;;;;;;7.10;5.38;;;;;;;;;;5092770;28;20030;-73
2023/08/20 06:58:34;;;;;;;8.93;5.47;;;;;;;;;;5092727;28;20047;-74
2023/08/20 07:01:07;;;;;;;8.65;5.80;;;;;;;;;;5094302;28;20114;-72
2023/08/20 07:03:33;;;;;;;9.90;5.45;;;;;;;;;;5094819;28;20480;-73
2023/08/20 07:05:59;;;;;;;7.20;5.38;;;;;;;;;;5076461;28;20028;-73
2023/08/20 07:08:24;;;;;;;11.73;5.43;;;;;;;;;;5094679;28;20493;-73
2023/08/20 07:10:50;;;;;;;7.00;5.22;;;;;;;;;;5076400;28;20036;-73
2023/08/20 07:13:15;;;;;;;7.38;5.90;;;;;;;;;;5094617;28;20020;-73
2023/08/20 07:15:40;;;;;;;8.88;5.65;;;;;;;;;;5094328;28;20501;-73
2023/08/20 07:18:05;;;;;;;10.57;5.70;;;;;;;;;;5094494;28;20024;-73
2023/08/20 07:20:31;;;;;;;11.50;5.75;;;;;;;;;;5094856;28;20259;-73
2023/08/20 07:22:56;;;;;;;6.85;5.63;;;;;;;;;;5076180;28;20024;-73
2023/08/20 07:25:21;;;;;;;10.03;5.77;;;;;;;;;;5094481;28;20532;-72
2023/08/20 07:27:50;;;;;;;11.93;5.32;;;;;;;;;;5094391;28;20288;-73
2023/08/20 07:30:16;;;;;;;7.90;5.68;;;;;;;;;;5076112;28;20028;-72
2023/08/20 07:32:41;;;;;;;10.43;5.95;;;;;;;;;;5094240;28;20020;-73
2023/08/20 07:35:08;;;;;;;9.25;5.60;;;;;;;;;;5094180;28;20020;-74
2023/08/20 07:37:33;;;;;;;8.10;4.75;;;;;;;;;;5095161;28;20051;-73
2023/08/20 07:39:58;;;;;;;10.57;5.50;;;;;;;;;;5094046;28;20028;-74
2023/08/20 07:42:23;;;;;;;7.83;5.70;;;;;;;;;;5093740;28;20617;-73
2023/08/20 07:44:49;;;;;;;6.40;4.93;;;;;;;;;;5093735;28;20256;-73
2023/08/20 07:47:14;;;;;;;10.23;5.67;;;;;;;;;;5093739;28;20256;-73
2023/08/20 07:49:39;;;;;;;8.63;5.83;;;;;;;;;;5093691;28;20252;-73
2023/08/20 07:52:04;;;;;;;10.40;5.77;;;;;;;;;;5093752;28;20597;-72
2023/08/20 07:54:30;;;;;;;9.30;5.78;;;;;;;;;;5093582;28;20306;-72
2023/08/20 07:56:55;;;;;;;9.18;5.47;;;;;;;;;;5093684;28;20391;-72
2023/08/20 07:59:20;;;;;;;8.38;5.50;;;;;;;;;;5093591;28;20016;-73
2023/08/20 08:01:46;;;;;;;7.80;5.37;;;;;;;;;;5093692;28;20437;-74
2023/08/20 08:04:11;;;;;;;9.10;5.53;;;;;;;;;;5093375;28;20324;-74
2023/08/20 08:06:36;;;;;;;8.63;5.35;;;;;;;;;;5092506;28;20248;-74
2023/08/20 08:09:31;;;;;;;8.52;6.18;;;;;;;;;;5093686;28;20024;-73
2023/08/20 08:11:59;;;;;;;8.18;5.43;;;;;;;;;;5093339;28;20012;-74
2023/08/20 08:14:24;;;;;;;9.38;5.45;;;;;;;;;;5074943;28;20058;-72
2023/08/20 08:16:50;;;;;;;8.80;5.43;;;;;;;;;;5093460;28;20483;-73
2023/08/20 08:19:19;;;;;;;10.48;5.50;;;;;;;;;;5092838;28;20524;-75
2023/08/20 08:21:45;;;;;;;7.35;5.05;;;;;;;;;;5093121;28;20104;-71
2023/08/20 08:24:11;;;;;;;8.55;5.57;;;;;;;;;;5093444;28;20435;-73
2023/08/20 08:26:37;;;;;;;6.93;5.40;;;;;;;;;;5093366;28;20104;-75
2023/08/20 08:29:03;;;;;;;7.60;5.57;;;;;;;;;;5077245;28;20031;-74
2023/08/20 08:31:28;;;;;;;6.70;5.43;;;;;;;;;;5094242;28;20039;-74
2023/08/20 08:33:53;;;;;;;8.13;5.70;;;;;;;;;;5091305;28;20020;-74
2023/08/20 08:36:18;;;;;;;7.87;5.20;;;;;;;;;;5092038;28;20497;-75
2023/08/20 08:38:44;;;;;;;10.55;5.90;;;;;;;;;;5093121;28;20257;-73
2023/08/20 08:41:13;;;;;;;8.65;5.45;;;;;;;;;;5093135;28;20050;-76
2023/08/20 08:43:40;;;;;;;8.02;5.78;;;;;;;;;;5075333;28;20066;-72
2023/08/20 08:46:17;;;;;;;10.68;5.43;;;;;;;;;;5093001;28;20405;-77
2023/08/20 08:48:44;;;;;;;6.50;5.13;;;;;;;;;;5093788;28;20099;-74
2023/08/20 08:51:12;;;;;;;7.85;5.43;;;;;;;;;;5076680;28;20115;-73
2023/08/20 08:53:37;;;;;;;8.23;5.38;;;;;;;;;;5095476;28;20020;-75
2023/08/20 08:56:05;;;;;;;10.25;5.15;;;;;;;;;;5092179;28;20027;-74
2023/08/20 08:58:32;;;;;;;9.02;5.20;;;;;;;;;;5090856;28;20371;-74
2023/08/20 09:00:57;;;;;;;6.80;4.75;;;;;;;;;;5091291;28;20479;-75
2023/08/20 09:03:26;;;;;;;8.20;4.68;;;;;;;;;;5092415;28;20104;-76
2023/08/20 09:05:56;;;;;;;9.02;4.95;;;;;;;;;;5091636;28;20027;-76
2023/08/20 09:08:23;;;;;;;7.75;5.20;;;;;;;;;;5091957;28;20020;-75
2023/08/20 09:10:52;;;;;;;8.63;5.43;;;;;;;;;;5091876;28;20398;-76
2023/08/20 09:13:23;;;;;;;7.40;5.53;;;;;;;;;;5092734;28;20024;-75
2023/08/20 09:15:51;;;;;;;7.93;5.50;;;;;;;;;;5074131;28;20039;-75
2023/08/20 09:18:17;;;;;;;9.43;5.35;;;;;;;;;;5096547;28;20047;-74
2023/08/20 09:20:42;;;;;;;7.80;5.00;;;;;;;;;;5078543;28;20510;-75
2023/08/20 09:23:13;;;;;;;10.95;5.80;;;;;;;;;;5077108;28;20283;-74
2023/08/20 09:25:38;;;;;;;9.52;6.38;;;;;;;;;;5096892;28;20483;-74
2023/08/20 09:28:04;;;;;;;10.98;5.97;;;;;;;;;;5078428;28;20058;-76
2023/08/20 09:30:29;;;;;;;11.07;6.78;;;;;;;;;;5079246;28;20046;-76
2023/08/20 09:33:13;;;;;;;11.73;6.55;;;;;;;;;;5096314;28;20069;-75
2023/08/20 09:35:38;;;;;;;5.85;4.43;;;;;;;;;;5094235;22;20048;-76
2023/08/20 09:38:04;;;;;;;7.82;5.68;;;;;;;;;;5075981;28;20442;-75
2023/08/20 09:40:39;;;;;;;11.18;6.68;;;;;;;;;;5076206;28;20064;-75
2023/08/20 09:43:08;;;;;;;12.77;8.70;;;;;;;;;;5076180;28;20020;-76
2023/08/20 09:45:34;;;;;;;10.45;6.45;;;;;;;;;;5085725;28;20103;-74
2023/08/20 09:48:03;;;;;;;9.63;7.18;;;;;;;;;;5078031;28;20032;-75
2023/08/20 09:50:36;;;;;;;8.45;6.60;;;;;;;;;;5096057;28;20024;-74
2023/08/20 09:53:28;;;;;;;14.05;7.68;;;;;;;;;;5077725;28;20028;-76
2023/08/20 09:56:01;;;;;;;8.68;5.05;;;;;;;;;;5095945;28;20403;-76
2023/08/20 09:58:27;;;;;;;10.70;7.03;;;;;;;;;;5096174;28;20030;-75
2023/08/20 10:00:56;;;;;;;9.68;6.78;;;;;;;;;;5095803;28;20106;-76
2023/08/20 10:03:22;;;;;;;10.55;6.97;;;;;;;;;;5077661;28;20027;-75
2023/08/20 10:05:59;;;;;;;8.38;7.15;;;;;;;;;;5095643;28;20479;-75
2023/08/20 10:08:25;;;;;;;11.45;6.90;;;;;;;;;;5078509;28;20062;-77
2023/08/20 10:10:50;;;;;;;11.15;7.35;;;;;;;;;;5095872;28;20024;-76
2023/08/20 10:13:17;;;;;;;8.32;6.85;;;;;;;;;;5077706;28;20364;-75
2023/08/20 10:15:42;;;;;;;10.75;7.13;;;;;;;;;;5095733;28;20031;-76
2023/08/20 10:18:08;;;;;;;11.70;7.03;;;;;;;;;;5095808;28;20387;-75
2023/08/20 10:20:34;;;;;;;9.60;7.22;;;;;;;;;;5095799;28;20027;-76
2023/08/20 10:23:03;;;;;;;9.52;7.13;;;;;;;;;;5095959;28;20027;-74
2023/08/20 10:25:29;;;;;;;11.90;7.20;;;;;;;;;;5095458;28;20038;-75
2023/08/20 10:28:12;;;;;;;10.63;7.50;;;;;;;;;;5076346;28;20024;-75
2023/08/20 10:30:37;;;;;;;11.10;7.70;;;;;;;;;;5096159;28;20043;-75
2023/08/20 10:33:03;;;;;;;7.30;6.22;;;;;;;;;;5077614;28;20060;-75
2023/08/20 10:35:47;;;;;;;10.23;7.18;;;;;;;;;;5095384;28;20038;-75
2023/08/20 10:38:16;;;;;;;8.88;7.10;;;;;;;;;;5095628;28;20047;-76
2023/08/20 10:40:58;;;;;;;8.50;6.43;;;;;;;;;;5076017;28;20123;-77
2023/08/20 10:43:25;;;;;;;10.50;6.13;;;;;;;;;;5077257;28;20024;-74
2023/08/20 10:46:07;;;;;;;8.05;5.85;;;;;;;;;;5095321;28;20418;-74
2023/08/20 10:48:34;;;;;;;8.15;5.35;;;;;;;;;;5095164;28;20024;-74
2023/08/20 10:51:16;;;;;;;7.95;6.07;;;;;;;;;;5076982;28;20024;-74
2023/08/20 10:53:47;;;;;;;9.32;5.40;;;;;;;;;;5076732;28;20404;-75
2023/08/20 10:56:17;;;;;;;8.38;5.40;;;;;;;;;;5094848;28;20024;-74
2023/08/20 10:58:44;;;;;;;9.73;5.53;;;;;;;;;;5076676;28;20110;-76
2023/08/20 11:01:15;;;;;;;9.00;6.20;;;;;;;;;;5076858;28;20507;-75
2023/08/20 11:03:41;;;;;;;8.52;6.32;;;;;;;;;;5094840;28;20055;-76
2023/08/20 11:06:07;;;;;;;8.40;6.32;;;;;;;;;;5076505;28;20070;-74
2023/08/20 11:08:33;;;;;;;7.82;6.13;;;;;;;;;;5095071;28;20031;-76
2023/08/20 11:10:58;;;;;;;7.43;5.93;;;;;;;;;;5094641;28;20020;-75
2023/08/20 11:13:25;;;;;;;8.07;5.72;;;;;;;;;;5095136;28;20027;-75
2023/08/20 11:15:50;;;;;;;10.88;5.88;;;;;;;;;;5094744;28;20032;-75
2023/08/20 11:18:16;;;;;;;10.85;5.78;;;;;;;;;;5094922;28;20031;-75
2023/08/20 11:20:41;;;;;;;6.63;5.90;;;;;;;;;;5094657;28;20043;-76
2023/08/20 11:23:06;;;;;;;7.18;5.32;;;;;;;;;;5094521;28;20388;-75
2023/08/20 11:25:31;;;;;;;10.82;5.75;;;;;;;;;;5094444;28;20028;-74
2023/08/20 11:27:57;;;;;;;8.60;5.20;;;;;;;;;;5094265;28;20073;-76
2023/08/20 11:30:24;;;;;;;7.00;5.00;;;;;;;;;;5094560;28;20261;-75
2023/08/20 11:32:52;;;;;;;10.05;6.05;;;;;;;;;;5094168;28;20022;-75
2023/08/20 11:35:18;;;;;;;10.32;7.65;;;;;;;;;;5093968;28;20051;-74
2023/08/20 11:37:43;;;;;;;7.60;5.50;;;;;;;;;;5094501;28;20467;-75
2023/08/20 11:40:09;;;;;;;8.20;4.85;;;;;;;;;;5094065;28;20471;-76
2023/08/20 11:42:34;;;;;;;7.00;5.03;;;;;;;;;;5094810;28;20027;-75
2023/08/20 11:45:00;;;;;;;6.30;4.68;;;;;;;;;;5096173;28;20520;-77
2023/08/20 11:47:25;;;;;;;7.87;4.80;;;;;;;;;;5093749;28;20484;-74
2023/08/20 11:50:03;;;;;;;5.68;4.45;;;;;;;;;;5093613;28;20272;-78
2023/08/20 11:52:31;;;;;;;6.28;4.80;;;;;;;;;;5094092;28;20471;-77
2023/08/20 11:54:56;;;;;;;5.53;4.65;;;;;;;;;;5094190;28;20046;-77
2023/08/20 11:57:21;;;;;;;8.23;5.20;;;;;;;;;;5093963;28;20550;-77
2023/08/20 11:59:47;;;;;;;7.05;4.63;;;;;;;;;;5093832;28;20024;-77
2023/08/20 12:02:12;;;;;;;7.70;4.10;;;;;;;;;;5093565;28;20024;-77
2023/08/20 12:04:37;;;;;;;10.30;4.35;;;;;;;;;;5093698;28;20429;-76
2023/08/20 12:07:05;;;;;;;8.82;4.80;;;;;;;;;;5093556;28;20031;-76
2023/08/20 12:09:30;;;;;;;6.85;4.40;;;;;;;;;;5093362;28;20032;-76
2023/08/20 12:11:55;;;;;;;7.53;4.25;;;;;;;;;;5093777;28;20020;-77
2023/08/20 12:14:21;;;;;;;9.15;4.43;;;;;;;;;;5093684;28;20019;-75
2023/08/20 12:16:47;;;;;;;6.90;4.43;;;;;;;;;;5093078;28;20487;-76
2023/08/20 12:19:13;;;;;;;5.68;4.30;;;;;;;;;;5093394;28;20092;-77
2023/08/20 12:21:39;;;;;;;4.57;3.95;;;;;;;;;;5093214;28;20016;-76
2023/08/20 12:24:04;;;;;;;9.27;4.80;;;;;;;;;;5093469;28;20016;-76
2023/08/20 12:26:30;;;;;;;4.95;4.15;;;;;;;;;;5093003;28;20032;-76
2023/08/20 12:28:55;;;;;;;6.97;4.60;;;;;;;;;;5093077;28;20020;-77
2023/08/20 12:31:20;;;;;;;7.95;4.70;;;;;;;;;;5093007;28;20727;-78
2023/08/20 12:33:45;;;;;;;8.33;4.33;;;;;;;;;;5093869;28;20020;-74
2023/08/20 12:36:11;;;;;;;6.23;4.27;;;;;;;;;;5092869;28;20276;-73
2023/08/20 12:38:36;;;;;;;5.83;4.37;;;;;;;;;;5093019;28;20525;-75
2023/08/20 12:41:03;;;;;;;5.63;4.17;;;;;;;;;;5093034;28;20635;-77
2023/08/20 12:43:29;;;;;;;7.65;4.80;;;;;;;;;;5074726;28;20280;-76
2023/08/20 12:45:54;;;;;;;6.82;4.80;;;;;;;;;;5092706;28;20127;-76
2023/08/20 12:48:19;;;;;;;6.23;4.90;;;;;;;;;;5092961;28;20032;-76
2023/08/20 12:50:44;;;;;;;6.97;4.40;;;;;;;;;;5093515;28;20249;-76
2023/08/20 12:53:10;;;;;;;6.40;4.78;;;;;;;;;;5099360;28;20317;-76
2023/08/20 12:55:35;;;;;;;6.40;4.57;;;;;;;;;;5099663;28;20377;-77
2023/08/20 12:58:00;;;;;;;6.88;4.65;;;;;;;;;;5081407;28;20394;-75
2023/08/20 13:00:26;;;;;;;8.98;4.80;;;;;;;;;;5101247;28;20390;-76
2023/08/20 13:02:55;;;;;;;8.68;4.65;;;;;;;;;;5081271;28;20497;-76
2023/08/20 13:05:26;;;;;;;6.53;4.60;;;;;;;;;;5099633;28;20028;-75
2023/08/20 13:07:54;;;;;;;6.72;4.82;;;;;;;;;;5099370;28;20059;-75
2023/08/20 13:10:23;;;;;;;5.38;4.30;;;;;;;;;;5099378;28;20110;-74
2023/08/20 13:12:53;;;;;;;6.18;4.95;;;;;;;;;;5081483;28;20486;-77
2023/08/20 13:15:20;;;;;;;8.52;4.28;;;;;;;;;;5081188;28;20501;-76
2023/08/20 13:17:47;;;;;;;5.57;4.28;;;;;;;;;;5099311;28;20027;-77
2023/08/20 13:20:12;;;;;;;7.68;4.35;;;;;;;;;;5099250;28;20390;-76
2023/08/20 13:22:37;;;;;;;7.97;4.07;;;;;;;;;;5099450;28;20017;-76
2023/08/20 13:25:04;;;;;;;7.47;4.20;;;;;;;;;;5099082;28;20391;-77
2023/08/20 13:27:30;;;;;;;11.73;4.50;;;;;;;;;;5098953;28;20544;-76
2023/08/20 13:29:55;;;;;;;6.85;4.05;;;;;;;;;;5099129;28;20032;-75
2023/08/20 13:32:20;;;;;;;12.18;4.55;;;;;;;;;;5080864;28;20070;-76
2023/08/20 13:34:45;;;;;;;5.70;4.17;;;;;;;;;;5080818;28;20121;-75
2023/08/20 13:37:11;;;;;;;6.33;4.33;;;;;;;;;;5099488;28;20589;-77
2023/08/20 13:39:36;;;;;;;4.65;4.15;;;;;;;;;;5099272;28;20260;-76
2023/08/20 13:42:02;;;;;;;7.63;4.05;;;;;;;;;;5080852;28;20166;-77
2023/08/20 13:44:27;;;;;;;10.80;4.22;;;;;;;;;;5099468;28;20055;-75
2023/08/20 13:46:52;;;;;;;5.82;4.00;;;;;;;;;;5098892;28;20085;-76
2023/08/20 13:49:18;;;;;;;7.90;4.53;;;;;;;;;;5099116;28;20028;-77
2023/08/20 13:51:43;;;;;;;8.00;4.30;;;;;;;;;;5099015;28;20751;-76
2023/08/20 13:54:08;;;;;;;6.30;3.83;;;;;;;;;;5099024;28;20255;-75
2023/08/20 13:56:33;;;;;;;7.03;4.27;;;;;;;;;;5098793;28;20264;-76
2023/08/20 13:58:59;;;;;;;7.47;4.13;;;;;;;;;;5099156;28;20264;-77
2023/08/20 14:01:24;;;;;;;6.20;4.30;;;;;;;;;;5098957;28;20028;-76
2023/08/20 14:03:50;;;;;;;5.60;3.97;;;;;;;;;;5096804;28;20283;-76
2023/08/20 14:06:16;;;;;;;10.93;3.88;;;;;;;;;;5095702;28;20028;-77
2023/08/20 14:08:41;;;;;;;5.57;4.07;;;;;;;;;;5095959;28;20028;-77
2023/08/20 14:11:07;;;;;;;6.93;4.13;;;;;;;;;;5095819;28;20047;-77
2023/08/20 14:13:32;;;;;;;6.35;4.57;;;;;;;;;;5095668;28;20027;-77
2023/08/20 14:15:57;;;;;;;6.57;4.00;;;;;;;;;;5077497;28;20024;-76
2023/08/20 14:18:23;;;;;;;7.28;4.10;;;;;;;;;;5095630;28;20275;-77
2023/08/20 14:20:48;;;;;;;7.55;4.20;;;;;;;;;;5095963;28;20059;-77
2023/08/20 14:23:13;;;;;;;7.55;4.43;;;;;;;;;;5095758;28;20016;-76
2023/08/20 14:25:40;;;;;;;6.67;4.50;;;;;;;;;;5095412;28;20103;-76
2023/08/20 14:28:06;;;;;;;5.35;4.53;;;;;;;;;;5095429;28;20719;-76
2023/08/20 14:30:31;;;;;;;9.45;4.40;;;;;;;;;;5095388;28;20020;-77
2023/08/20 14:32:56;;;;;;;7.70;4.40;;;;;;;;;;5095337;28;20016;-76
2023/08/20 14:35:21;;;;;;;6.90;4.70;;;;;;;;;;5095170;28;20319;-77